Time;durP1;ratioP1;P1;durP2;ratioP2;P2;SDS_P1;SDS_P2;PMS_P1;PMS_P2;Temp;Humidity;BMP_temperature;BMP_pressure;BME280_temperature;BME280_humidity;BME280_pressure;Samples;Min_cycle;Max_cycle;Signal;HPM_P1;HPM_P2
2023/09/20 00:02:53;;;;;;;5.53;1.52;;;19.30;99.90;;;;;;5026642;28;20044;-62
2023/09/20 00:06:01;;;;;;;3.42;1.02;;;19.30;99.90;;;;;;5032823;28;20052;-62
2023/09/20 00:09:08;;;;;;;3.88;1.88;;;19.30;99.90;;;;;;5021477;28;20053;-61
2023/09/20 00:12:12;;;;;;;2.72;1.20;;;19.20;99.90;;;;;;5029341;28;20404;-61
2023/09/20 00:15:16;;;;;;;5.53;1.40;;;19.30;99.90;;;;;;5029625;28;20515;-62
2023/09/20 00:18:23;;;;;;;6.65;1.88;;;19.20;99.90;;;;;;5024956;28;20044;-61
2023/09/20 00:21:27;;;;;;;8.82;1.90;;;19.10;99.90;;;;;;5032960;28;20109;-61
2023/09/20 00:24:33;;;;;;;6.53;1.70;;;19.00;99.90;;;;;;5032391;28;20511;-63
2023/09/20 00:27:38;;;;;;;8.23;2.30;;;18.80;99.90;;;;;;5031007;28;20053;-61
2023/09/20 00:30:43;;;;;;;7.53;3.30;;;18.60;99.90;;;;;;5025104;28;20040;-61
2023/09/20 00:33:49;;;;;;;8.25;2.97;;;18.20;99.90;;;;;;5023492;28;20049;-62
2023/09/20 00:36:53;;;;;;;13.43;2.28;;;18.00;99.90;;;;;;5026324;28;20049;-63
2023/09/20 00:39:57;;;;;;;7.25;2.50;;;18.00;99.90;;;;;;5020242;28;20041;-63
2023/09/20 00:43:06;;;;;;;8.18;2.22;;;18.00;99.90;;;;;;5027316;28;20071;-63
2023/09/20 00:46:12;;;;;;;7.25;2.22;;;18.00;99.90;;;;;;5028435;28;20036;-63
2023/09/20 00:49:17;;;;;;;6.20;2.22;;;18.00;99.90;;;;;;5028383;28;20045;-62
2023/09/20 00:52:24;;;;;;;8.35;2.08;;;18.00;99.90;;;;;;5025558;28;20041;-62
2023/09/20 00:55:31;;;;;;;7.82;2.58;;;18.00;99.90;;;;;;5031970;28;20041;-61
2023/09/20 00:58:36;;;;;;;7.50;2.03;;;18.00;99.90;;;;;;5032359;28;20048;-62
2023/09/20 01:01:41;;;;;;;6.88;2.40;;;18.10;99.90;;;;;;5028970;28;20033;-62
2023/09/20 01:04:46;;;;;;;7.82;2.15;;;18.10;99.90;;;;;;5024175;28;20037;-62
2023/09/20 01:07:52;;;;;;;9.82;2.90;;;18.10;99.90;;;;;;5025252;28;20053;-61
2023/09/20 01:10:56;;;;;;;10.27;2.33;;;18.10;99.90;;;;;;5025866;28;20036;-62
2023/09/20 01:14:00;;;;;;;4.05;1.92;;;18.10;99.90;;;;;;5025847;28;20057;-62
2023/09/20 01:17:08;;;;;;;5.80;1.90;;;18.10;99.90;;;;;;5026165;28;20048;-61
2023/09/20 01:20:13;;;;;;;6.03;2.08;;;18.20;99.90;;;;;;5027155;28;20052;-61
2023/09/20 01:23:17;;;;;;;5.47;1.50;;;18.30;99.90;;;;;;5027507;28;20547;-62
2023/09/20 01:26:22;;;;;;;5.93;2.78;;;18.40;99.90;;;;;;5028632;28;20060;-61
2023/09/20 01:29:26;;;;;;;12.85;3.13;;;18.30;99.90;;;;;;5029553;28;20045;-62
2023/09/20 01:32:30;;;;;;;12.75;3.15;;;17.90;99.90;;;;;;5031633;28;20037;-61
2023/09/20 01:35:36;;;;;;;13.75;3.60;;;17.90;99.90;;;;;;5030624;28;20048;-62
2023/09/20 01:38:42;;;;;;;11.50;3.50;;;17.90;99.90;;;;;;5031163;28;20040;-62
2023/09/20 01:41:46;;;;;;;16.30;4.20;;;17.80;99.90;;;;;;5024010;28;20392;-62
2023/09/20 01:44:51;;;;;;;15.93;3.33;;;17.70;99.90;;;;;;5030901;28;20072;-62
2023/09/20 01:48:00;;;;;;;11.30;2.60;;;17.70;99.90;;;;;;5024671;28;20049;-62
2023/09/20 01:51:04;;;;;;;8.85;2.60;;;17.60;99.90;;;;;;5026184;28;20044;-59
2023/09/20 01:54:08;;;;;;;5.85;2.38;;;17.50;99.90;;;;;;5024609;28;20048;-62
2023/09/20 01:57:12;;;;;;;8.60;2.60;;;17.50;99.90;;;;;;5027135;28;20045;-61
2023/09/20 02:00:26;;;;;;;9.50;3.00;;;17.40;99.90;;;;;;5026848;28;20504;-62
2023/09/20 02:03:31;;;;;;;7.28;3.22;;;17.40;99.90;;;;;;5028302;28;20045;-61
2023/09/20 02:06:35;;;;;;;5.80;2.13;;;17.40;99.90;;;;;;5029883;28;20044;-62
2023/09/20 02:09:40;;;;;;;5.63;2.38;;;17.30;99.90;;;;;;5030796;28;20036;-62
2023/09/20 02:12:51;;;;;;;7.13;2.58;;;17.40;99.90;;;;;;5025223;28;20581;-62
2023/09/20 02:15:57;;;;;;;7.90;3.13;;;17.40;99.90;;;;;;5023271;28;20510;-62
2023/09/20 02:19:02;;;;;;;9.60;2.80;;;17.50;99.90;;;;;;5025301;28;20100;-62
2023/09/20 02:22:06;;;;;;;11.38;4.25;;;17.50;99.90;;;;;;5024668;28;20045;-62
2023/09/20 02:25:11;;;;;;;17.65;3.80;;;17.60;99.90;;;;;;5029710;28;20045;-62
2023/09/20 02:28:15;;;;;;;12.60;3.17;;;17.60;99.90;;;;;;5027064;28;20048;-62
2023/09/20 02:31:20;;;;;;;8.68;3.05;;;17.70;99.90;;;;;;5023243;28;20531;-57
2023/09/20 02:34:24;;;;;;;14.82;4.10;;;17.60;99.90;;;;;;5030220;28;20276;-62
2023/09/20 02:37:28;;;;;;;13.85;4.20;;;17.40;99.90;;;;;;5030606;28;20041;-60
2023/09/20 02:40:35;;;;;;;12.90;3.72;;;17.00;99.90;;;;;;5028958;28;20052;-60
2023/09/20 02:43:39;;;;;;;19.52;5.47;;;17.00;99.90;;;;;;5028203;28;20045;-59
2023/09/20 02:46:45;;;;;;;9.75;4.35;;;17.10;99.90;;;;;;5030176;28;20049;-62
2023/09/20 02:49:49;;;;;;;17.90;4.40;;;17.20;99.90;;;;;;5030618;28;20044;-61
2023/09/20 02:52:56;;;;;;;8.13;3.80;;;17.30;99.90;;;;;;5030295;28;20041;-61
2023/09/20 02:56:00;;;;;;;11.35;3.90;;;17.40;99.90;;;;;;5030126;28;20041;-61
2023/09/20 02:59:07;;;;;;;11.20;3.90;;;17.40;99.90;;;;;;5034574;28;20044;-62
2023/09/20 03:02:11;;;;;;;12.68;3.65;;;17.50;99.90;;;;;;5031742;28;20049;-61
2023/09/20 03:05:15;;;;;;;21.30;3.90;;;17.60;99.90;;;;;;5032682;28;20040;-61
2023/09/20 03:08:19;;;;;;;8.73;3.22;;;17.70;99.90;;;;;;5031909;28;20040;-60
2023/09/20 03:11:25;;;;;;;9.60;3.42;;;17.80;99.90;;;;;;5036919;28;20060;-60
2023/09/20 03:14:31;;;;;;;8.93;3.80;;;17.80;99.90;;;;;;5035504;28;20048;-61
2023/09/20 03:17:37;;;;;;;17.35;5.00;;;17.90;99.90;;;;;;5035406;28;20052;-62
2023/09/20 03:20:43;;;;;;;12.63;3.30;;;17.90;99.90;;;;;;5035863;28;20060;-62
2023/09/20 03:23:47;;;;;;;13.45;4.20;;;18.00;99.90;;;;;;5028710;28;20510;-61
2023/09/20 03:26:52;;;;;;;15.48;4.30;;;18.00;99.90;;;;;;5028614;28;20052;-62
2023/09/20 03:29:57;;;;;;;8.15;3.42;;;17.80;99.90;;;;;;5029597;28;20378;-61
2023/09/20 03:33:01;;;;;;;10.27;3.22;;;17.90;99.90;;;;;;5028122;28;20404;-62
2023/09/20 03:36:15;;;;;;;17.02;4.13;;;17.90;99.90;;;;;;5030659;28;20049;-62
2023/09/20 03:39:24;;;;;;;12.93;4.80;;;17.90;99.90;;;;;;5032361;28;20044;-60
2023/09/20 03:42:29;;;;;;;11.23;3.60;;;18.00;99.90;;;;;;5030404;28;20045;-61
2023/09/20 03:45:33;;;;;;;9.75;3.95;;;18.00;99.90;;;;;;5035201;28;20044;-60
2023/09/20 03:48:37;;;;;;;11.48;3.53;;;18.10;99.90;;;;;;5035727;28;20048;-63
2023/09/20 03:51:42;;;;;;;12.75;3.83;;;18.00;99.90;;;;;;5034887;28;20036;-62
2023/09/20 03:54:51;;;;;;;8.60;3.53;;;18.00;99.90;;;;;;5027064;28;20426;-62
2023/09/20 03:57:56;;;;;;;12.13;3.72;;;18.00;99.90;;;;;;5025408;28;20052;-63
2023/09/20 04:01:04;;;;;;;10.65;3.67;;;17.90;99.90;;;;;;5030591;28;20040;-63
2023/09/20 04:04:08;;;;;;;10.23;4.03;;;17.80;99.90;;;;;;5031279;28;20072;-62
2023/09/20 04:07:12;;;;;;;13.88;4.53;;;17.70;99.90;;;;;;5027330;28;20037;-61
2023/09/20 04:10:17;;;;;;;8.00;3.58;;;17.60;99.90;;;;;;5032506;28;20048;-60
2023/09/20 04:13:24;;;;;;;10.85;3.38;;;17.60;99.90;;;;;;5029943;28;20052;-63
2023/09/20 04:16:28;;;;;;;9.57;3.65;;;17.50;99.90;;;;;;5026937;28;20048;-61
2023/09/20 04:19:32;;;;;;;11.20;3.72;;;17.50;99.90;;;;;;5032182;28;20044;-62
2023/09/20 04:22:37;;;;;;;8.02;3.15;;;17.60;99.90;;;;;;5031721;28;20064;-62
2023/09/20 04:25:41;;;;;;;17.00;3.83;;;17.60;99.90;;;;;;5032676;28;20550;-61
2023/09/20 04:28:48;;;;;;;15.82;3.38;;;17.70;99.90;;;;;;5032003;28;20053;-62
2023/09/20 04:31:52;;;;;;;13.93;3.97;;;17.80;99.90;;;;;;5013715;28;20519;-62
2023/09/20 04:34:59;;;;;;;11.73;3.75;;;17.80;99.90;;;;;;5024950;28;20045;-62
2023/09/20 04:38:03;;;;;;;6.90;3.47;;;17.70;99.90;;;;;;5026234;28;20048;-62
2023/09/20 04:41:11;;;;;;;10.60;3.75;;;17.70;99.90;;;;;;5026810;28;20411;-61
2023/09/20 04:44:18;;;;;;;17.33;4.38;;;17.70;99.90;;;;;;5027370;28;20057;-62
2023/09/20 04:47:22;;;;;;;9.45;3.92;;;17.70;99.90;;;;;;5028029;28;20045;-62
2023/09/20 04:50:26;;;;;;;11.70;5.38;;;17.70;99.90;;;;;;5030282;28;20049;-62
2023/09/20 04:53:29;;;;;;;10.07;4.47;;;17.80;99.90;;;;;;5032121;28;20511;-62
2023/09/20 04:56:34;;;;;;;9.90;3.78;;;17.80;99.90;;;;;;5031455;28;20048;-61
2023/09/20 04:59:39;;;;;;;14.68;4.03;;;17.80;99.90;;;;;;5030327;28;20056;-62
2023/09/20 05:02:44;;;;;;;7.85;3.55;;;17.70;99.90;;;;;;5031190;28;20060;-63
2023/09/20 05:05:51;;;;;;;9.48;3.95;;;17.70;99.90;;;;;;5020280;28;20668;-61
2023/09/20 05:08:55;;;;;;;13.15;3.80;;;17.70;99.90;;;;;;5025277;28;20048;-62
2023/09/20 05:11:58;;;;;;;7.72;2.97;;;17.60;99.90;;;;;;5024921;28;20052;-62
2023/09/20 05:15:03;;;;;;;10.35;4.00;;;17.60;99.90;;;;;;5021334;28;20052;-61
2023/09/20 05:18:07;;;;;;;8.77;3.53;;;17.60;99.90;;;;;;5026560;28;20048;-61
2023/09/20 05:21:13;;;;;;;9.82;3.53;;;17.60;99.90;;;;;;5026651;28;20536;-61
2023/09/20 05:24:17;;;;;;;8.90;3.30;;;17.50;99.90;;;;;;5025011;28;20515;-60
2023/09/20 05:27:21;;;;;;;7.13;3.10;;;17.40;99.90;;;;;;5028260;28;20049;-62
2023/09/20 05:30:26;;;;;;;7.50;2.97;;;17.40;99.90;;;;;;5028630;28;20048;-62
2023/09/20 05:33:30;;;;;;;8.65;4.13;;;17.40;99.90;;;;;;5028032;28;20045;-60
2023/09/20 05:36:35;;;;;;;12.65;3.90;;;17.50;99.90;;;;;;5031572;28;20068;-62
2023/09/20 05:39:39;;;;;;;14.85;3.97;;;17.50;99.90;;;;;;5031305;28;20052;-59
2023/09/20 05:42:47;;;;;;;10.60;3.60;;;17.50;99.90;;;;;;5027712;28;20411;-62
2023/09/20 05:45:51;;;;;;;27.58;4.35;;;17.40;99.90;;;;;;5023350;28;20048;-61
2023/09/20 05:48:55;;;;;;;15.73;4.03;;;17.50;99.90;;;;;;5024323;28;20052;-61
2023/09/20 05:52:00;;;;;;;18.17;3.58;;;17.70;99.90;;;;;;5019070;28;20052;-62
2023/09/20 05:55:04;;;;;;;14.25;3.42;;;17.70;99.90;;;;;;5024878;28;20049;-58
2023/09/20 05:58:08;;;;;;;16.27;4.63;;;17.70;99.90;;;;;;5025992;28;20044;-62
2023/09/20 06:01:13;;;;;;;13.15;3.60;;;17.80;99.90;;;;;;5022817;28;20048;-62
2023/09/20 06:04:18;;;;;;;9.05;3.40;;;17.90;99.90;;;;;;5028824;28;20127;-62
2023/09/20 06:07:22;;;;;;;9.02;3.15;;;18.00;99.90;;;;;;5021065;28;20412;-62
2023/09/20 06:10:26;;;;;;;8.80;3.35;;;18.20;99.90;;;;;;5026856;28;20049;-63
2023/09/20 06:13:33;;;;;;;16.52;3.70;;;18.30;99.90;;;;;;5030028;28;20087;-62
2023/09/20 06:16:38;;;;;;;12.05;3.13;;;18.30;99.90;;;;;;5026681;28;20033;-62
2023/09/20 06:19:41;;;;;;;9.80;3.33;;;18.30;99.90;;;;;;5025857;28;20769;-62
2023/09/20 06:22:49;;;;;;;12.38;4.25;;;18.30;99.90;;;;;;5022462;28;20511;-62
2023/09/20 06:26:04;;;;;;;12.13;3.88;;;18.40;99.90;;;;;;5022227;28;20040;-63
2023/09/20 06:29:09;;;;;;;9.35;3.00;;;18.50;99.90;;;;;;5013191;28;20056;-60
2023/09/20 06:32:15;;;;;;;9.70;3.33;;;18.60;99.90;;;;;;5026253;28;20088;-63
2023/09/20 06:35:21;;;;;;;16.00;3.28;;;18.70;99.90;;;;;;5027976;28;20040;-62
2023/09/20 06:38:25;;;;;;;9.73;3.35;;;18.70;99.90;;;;;;5022991;28;20538;-62
2023/09/20 06:41:29;;;;;;;14.73;4.15;;;18.70;99.90;;;;;;5027156;28;20060;-61
2023/09/20 06:44:38;;;;;;;8.48;3.45;;;18.90;99.90;;;;;;5042612;23;20052;-57
2023/09/20 06:47:43;;;;;;;12.93;3.88;;;19.10;99.90;;;;;;5006464;28;20468;-56
2023/09/20 06:50:52;;;;;;;10.60;3.28;;;19.20;99.90;;;;;;5004761;28;20045;-53
2023/09/20 06:53:58;;;;;;;7.45;3.30;;;19.20;99.90;;;;;;5003064;28;20065;-52
2023/09/20 06:57:03;;;;;;;21.00;3.65;;;19.30;99.90;;;;;;4986170;28;20118;-52
2023/09/20 07:03:42;;;;;;;11.30;3.35;;;19.40;99.90;;;;;;4982917;28;20038;-57
2023/09/20 07:06:46;;;;;;;18.70;3.75;;;19.50;99.90;;;;;;4982619;28;20050;-52
2023/09/20 07:09:50;;;;;;;9.95;3.08;;;19.60;99.90;;;;;;4980761;28;20050;-52
2023/09/20 07:12:54;;;;;;;11.00;3.78;;;19.50;99.90;;;;;;4982583;28;20402;-53
2023/09/20 07:16:04;;;;;;;14.25;3.58;;;19.60;99.90;;;;;;4988640;28;20409;-52
2023/09/20 07:19:11;;;;;;;9.23;2.83;;;19.80;99.90;;;;;;4987054;28;20053;-50
2023/09/20 07:22:16;;;;;;;9.68;2.70;;;20.10;99.90;;;;;;4987998;28;20409;-58
2023/09/20 07:25:21;;;;;;;12.70;3.55;;;20.30;99.90;;;;;;4982722;28;20580;-51
2023/09/20 07:28:25;;;;;;;10.98;2.65;;;20.10;99.90;;;;;;4988559;28;20045;-53
2023/09/20 07:31:29;;;;;;;10.30;2.83;;;20.20;99.90;;;;;;4987404;28;20053;-51
2023/09/20 07:34:33;;;;;;;9.25;2.88;;;20.30;99.90;;;;;;4986263;28;20038;-54
2023/09/20 07:37:40;;;;;;;10.43;3.38;;;20.30;99.90;;;;;;4988061;28;20062;-56
2023/09/20 07:40:45;;;;;;;7.03;2.88;;;20.00;99.90;;;;;;4992628;28;20053;-53
2023/09/20 07:43:51;;;;;;;9.02;2.80;;;20.30;99.90;;;;;;4993055;28;20034;-56
2023/09/20 07:46:57;;;;;;;8.20;2.45;;;20.90;99.90;;;;;;4986113;28;20041;-57
2023/09/20 07:50:00;;;;;;;5.38;1.98;;;21.60;99.90;;;;;;4988241;28;20102;-53
2023/09/20 07:53:06;;;;;;;4.88;2.38;;;22.00;99.90;;;;;;4985427;28;20049;-59
2023/09/20 07:56:13;;;;;;;16.98;2.88;;;22.00;99.90;;;;;;4988390;28;20037;-57
2023/09/20 07:59:23;;;;;;;5.78;2.30;;;22.30;99.90;;;;;;4990873;28;20041;-59
2023/09/20 08:02:27;;;;;;;8.23;2.40;;;22.40;99.90;;;;;;4984569;28;20053;-54
2023/09/20 08:05:33;;;;;;;7.85;2.55;;;22.30;99.90;;;;;;4993319;28;20045;-52
2023/09/20 08:08:37;;;;;;;8.35;2.40;;;22.20;99.90;;;;;;4992567;28;20535;-59
2023/09/20 08:11:41;;;;;;;8.77;2.65;;;22.10;99.90;;;;;;4994632;28;20508;-56
2023/09/20 08:14:44;;;;;;;11.07;2.97;;;21.60;99.90;;;;;;4989847;28;20045;-55
2023/09/20 08:21:11;;;;;;;6.88;2.40;;;21.40;99.90;;;;;;4992493;28;20037;-57
2023/09/20 09:01:45;;;;;;;6.75;2.70;;;23.10;99.90;;;;;;4992501;28;20058;-53
2023/09/20 09:04:54;;;;;;;8.88;3.08;;;24.30;99.90;;;;;;4989163;28;20041;-58
2023/09/20 09:08:03;;;;;;;11.20;2.80;;;25.40;99.90;;;;;;4979932;28;20405;-53
2023/09/20 09:11:08;;;;;;;7.63;2.50;;;26.90;99.90;;;;;;4990120;28;20033;-50
2023/09/20 09:14:13;;;;;;;8.75;2.70;;;28.00;99.90;;;;;;4991589;28;20037;-52
2023/09/20 09:17:17;;;;;;;5.50;2.33;;;28.40;99.90;;;;;;4978132;28;20512;-54
2023/09/20 09:20:21;;;;;;;8.05;2.65;;;29.70;98.90;;;;;;4991620;28;20064;-54
2023/09/20 09:23:37;;;;;;;9.38;3.25;;;29.70;98.10;;;;;;4986658;28;20041;-55
2023/09/20 09:26:45;;;;;;;13.73;3.30;;;28.70;98.30;;;;;;4986759;28;20102;-54
2023/09/20 09:29:49;;;;;;;12.95;3.42;;;27.60;99.10;;;;;;4991341;28;20046;-51
2023/09/20 09:32:53;;;;;;;8.85;2.90;;;26.70;99.90;;;;;;4981805;28;20041;-55
2023/09/20 09:35:57;;;;;;;6.75;2.60;;;27.70;99.90;;;;;;4986757;28;20041;-55
2023/09/20 09:39:14;;;;;;;10.40;3.47;;;28.50;99.50;;;;;;4991244;28;20057;-52
2023/09/20 09:42:24;;;;;;;11.43;3.42;;;28.40;99.40;;;;;;4981506;28;20049;-52
2023/09/20 09:45:32;;;;;;;10.67;3.50;;;28.70;98.90;;;;;;4988866;28;20408;-55
2023/09/20 09:48:42;;;;;;;10.55;3.42;;;27.60;99.80;;;;;;4991488;28;20405;-53
2023/09/20 09:51:52;;;;;;;9.38;3.42;;;27.10;99.90;;;;;;4978840;28;20524;-51
2023/09/20 09:54:56;;;;;;;10.55;3.63;;;26.80;99.90;;;;;;4985558;28;20057;-56
2023/09/20 09:58:04;;;;;;;9.55;3.55;;;26.00;99.90;;;;;;4985068;28;20041;-53
2023/09/20 10:01:10;;;;;;;11.10;4.13;;;25.80;99.90;;;;;;4978437;28;20061;-58
2023/09/20 10:04:17;;;;;;;9.82;3.63;;;25.10;99.90;;;;;;4982567;28;20045;-56
2023/09/20 10:07:29;;;;;;;9.57;3.45;;;25.20;99.90;;;;;;4983952;28;20401;-58
2023/09/20 10:10:34;;;;;;;10.30;3.28;;;25.50;99.90;;;;;;4982757;28;20040;-56
2023/09/20 10:13:40;;;;;;;7.90;3.15;;;25.70;99.90;;;;;;4990128;28;20041;-61
2023/09/20 10:16:44;;;;;;;11.65;3.53;;;26.10;99.90;;;;;;4985929;28;20054;-60
2023/09/20 10:19:53;;;;;;;8.18;3.72;;;26.10;99.90;;;;;;4986720;28;20042;-55
2023/09/20 10:23:03;;;;;;;9.55;3.35;;;25.80;99.90;;;;;;4985919;28;20041;-58
2023/09/20 10:26:13;;;;;;;8.02;3.50;;;25.20;99.90;;;;;;4985851;28;20033;-58
2023/09/20 10:29:24;;;;;;;12.68;3.53;;;25.10;99.90;;;;;;4989646;28;20053;-54
2023/09/20 10:32:44;;;;;;;9.57;3.10;;;25.00;99.90;;;;;;4983484;28;20400;-58
2023/09/20 10:35:50;;;;;;;7.93;3.40;;;24.90;99.90;;;;;;4979225;28;20041;-52
2023/09/20 10:39:19;;;;;;;6.30;2.90;;;25.10;99.90;;;;;;4986713;28;20049;-58
2023/09/20 10:42:23;;;;;;;11.75;3.00;;;25.30;99.90;;;;;;4986252;28;20049;-54
2023/09/20 10:45:31;;;;;;;9.45;2.70;;;25.60;99.90;;;;;;4990413;28;20049;-53
2023/09/20 10:48:39;;;;;;;11.48;3.80;;;26.00;99.90;;;;;;4982894;28;20057;-58
2023/09/20 10:51:53;;;;;;;14.00;3.25;;;26.30;99.90;;;;;;4981954;28;20049;-55
2023/09/20 10:55:24;;;;;;;11.32;3.83;;;26.40;99.90;;;;;;4983216;28;20527;-52
2023/09/20 10:58:28;;;;;;;10.60;3.55;;;26.20;99.90;;;;;;4987383;28;20069;-60
2023/09/20 11:01:33;;;;;;;14.15;3.28;;;26.50;99.90;;;;;;4982913;28;20049;-54
2023/09/20 11:04:39;;;;;;;8.25;3.50;;;26.60;99.90;;;;;;4974576;28;20050;-54
2023/09/20 11:07:42;;;;;;;12.40;3.00;;;26.70;99.90;;;;;;4982285;28;20053;-54
2023/09/20 11:10:47;;;;;;;9.10;2.85;;;26.90;99.90;;;;;;4978438;28;20053;-53
2023/09/20 11:13:51;;;;;;;8.27;2.83;;;26.90;99.90;;;;;;4989848;28;20519;-55
2023/09/20 11:16:56;;;;;;;9.25;3.15;;;26.90;99.90;;;;;;4989413;28;20397;-57
2023/09/20 11:20:00;;;;;;;12.18;2.60;;;26.70;99.90;;;;;;4983588;28;20041;-56
2023/09/20 11:23:05;;;;;;;9.68;3.10;;;26.60;99.90;;;;;;4987773;28;20118;-52
2023/09/20 11:26:08;;;;;;;11.90;3.15;;;26.50;99.90;;;;;;4990419;28;20655;-54
2023/09/20 11:29:13;;;;;;;10.90;3.53;;;26.40;99.90;;;;;;4992500;28;20045;-52
2023/09/20 11:32:22;;;;;;;8.98;3.70;;;26.00;99.90;;;;;;4985739;28;20064;-53
2023/09/20 11:35:39;;;;;;;12.40;3.72;;;26.10;99.90;;;;;;4987419;28;20050;-60
2023/09/20 11:38:43;;;;;;;16.30;3.15;;;26.00;99.90;;;;;;4986713;28;20049;-58
2023/09/20 11:41:47;;;;;;;12.63;4.07;;;26.00;99.90;;;;;;4979548;28;20057;-57
2023/09/20 11:45:07;;;;;;;13.20;3.25;;;26.00;99.90;;;;;;4988943;28;20037;-54
2023/09/20 11:48:15;;;;;;;7.20;3.25;;;26.00;99.90;;;;;;4990974;28;20050;-58
2023/09/20 11:51:19;;;;;;;9.52;3.13;;;26.30;99.90;;;;;;4990508;28;20093;-55
2023/09/20 11:54:32;;;;;;;11.45;2.75;;;27.30;99.90;;;;;;4991238;28;20042;-52
2023/09/20 11:57:36;;;;;;;6.30;2.60;;;28.60;99.90;;;;;;4990447;28;20132;-59
2023/09/20 12:00:43;;;;;;;6.05;2.42;;;30.70;99.30;;;;;;4988604;28;22100;-59
2023/09/20 12:03:51;;;;;;;9.75;2.10;;;32.50;96.10;;;;;;4992739;28;20049;-56
2023/09/20 12:06:56;;;;;;;5.15;2.10;;;32.90;94.10;;;;;;4992268;28;20049;-54
2023/09/20 12:10:01;;;;;;;4.97;1.80;;;32.80;94.10;;;;;;4991180;28;20053;-55
2023/09/20 12:13:06;;;;;;;3.90;1.70;;;32.60;93.30;;;;;;4990221;28;20049;-53
2023/09/20 12:16:11;;;;;;;4.82;2.10;;;32.40;93.10;;;;;;4983217;28;20049;-57
2023/09/20 12:19:16;;;;;;;11.20;2.20;;;32.10;92.80;;;;;;4980999;28;20057;-54
2023/09/20 12:22:20;;;;;;;10.13;2.20;;;31.80;92.80;;;;;;4988586;28;20041;-56
2023/09/20 12:25:24;;;;;;;7.85;2.42;;;31.50;93.40;;;;;;4987852;28;20053;-54
2023/09/20 12:28:29;;;;;;;7.18;1.98;;;30.80;93.60;;;;;;4986367;28;20049;-52
2023/09/20 12:31:33;;;;;;;10.77;2.40;;;30.20;94.10;;;;;;4988526;28;20042;-54
2023/09/20 12:34:37;;;;;;;7.30;2.00;;;29.80;94.60;;;;;;4990282;28;20118;-54
2023/09/20 12:37:41;;;;;;;8.00;2.10;;;29.50;95.10;;;;;;4989630;28;20046;-52
2023/09/20 12:40:45;;;;;;;10.93;2.58;;;29.20;95.10;;;;;;4992886;28;20053;-55
2023/09/20 12:43:50;;;;;;;6.82;2.33;;;28.60;96.40;;;;;;4982260;28;20050;-56
2023/09/20 12:46:54;;;;;;;6.28;2.13;;;27.90;96.80;;;;;;5015239;23;20061;-56
2023/09/20 12:49:58;;;;;;;5.78;2.05;;;27.60;96.70;;;;;;4992940;28;20042;-57
2023/09/20 12:53:09;;;;;;;9.52;2.20;;;27.90;97.60;;;;;;4986622;28;20037;-58
2023/09/20 12:56:14;;;;;;;8.45;2.28;;;27.70;96.70;;;;;;5000365;28;20044;-58
2023/09/20 12:59:19;;;;;;;9.27;2.17;;;27.90;96.70;;;;;;5008643;28;20044;-55
2023/09/20 13:02:27;;;;;;;8.73;1.85;;;28.10;96.10;;;;;;5006756;28;20049;-58
2023/09/20 13:05:31;;;;;;;7.10;2.25;;;28.10;96.50;;;;;;5004670;28;20511;-58
2023/09/20 13:08:37;;;;;;;8.45;1.88;;;28.30;96.50;;;;;;5003915;28;20069;-57
2023/09/20 13:11:45;;;;;;;6.10;2.30;;;28.30;96.20;;;;;;5004499;28;20041;-57
2023/09/20 13:14:50;;;;;;;8.05;2.40;;;28.30;96.40;;;;;;5006511;28;20045;-58
2023/09/20 13:17:55;;;;;;;8.30;2.10;;;28.10;96.50;;;;;;5005885;28;20045;-54
2023/09/20 13:21:00;;;;;;;7.25;1.92;;;28.20;96.60;;;;;;5006375;28;20054;-55
2023/09/20 13:24:06;;;;;;;12.18;2.30;;;28.00;97.10;;;;;;5004202;28;20593;-58
2023/09/20 13:27:10;;;;;;;9.55;2.45;;;28.20;97.10;;;;;;5006120;28;20397;-57
2023/09/20 13:30:17;;;;;;;5.35;1.80;;;28.20;96.70;;;;;;5006541;28;20052;-58
2023/09/20 13:33:21;;;;;;;8.50;2.65;;;28.20;96.30;;;;;;5004373;28;20041;-56
2023/09/20 13:36:25;;;;;;;7.68;2.35;;;27.40;97.20;;;;;;5007423;28;20413;-56
2023/09/20 13:39:29;;;;;;;6.82;2.17;;;27.50;97.00;;;;;;5008823;28;20045;-55
2023/09/20 13:42:36;;;;;;;5.78;2.30;;;27.10;97.70;;;;;;5003780;28;20057;-60
2023/09/20 13:45:43;;;;;;;8.18;2.55;;;26.70;98.50;;;;;;5006954;28;20057;-56
2023/09/20 13:48:49;;;;;;;10.10;2.65;;;26.80;99.10;;;;;;5007374;28;20041;-54
2023/09/20 13:51:53;;;;;;;5.78;2.63;;;26.70;98.90;;;;;;5008989;28;20041;-56
2023/09/20 13:54:57;;;;;;;6.80;2.17;;;26.50;99.00;;;;;;5006050;28;20040;-54
2023/09/20 13:58:01;;;;;;;8.55;3.05;;;26.80;98.40;;;;;;5003790;28;20041;-57
2023/09/20 14:01:05;;;;;;;8.90;2.38;;;27.50;98.10;;;;;;5010790;28;20579;-56
2023/09/20 14:04:09;;;;;;;6.07;2.47;;;27.40;97.70;;;;;;5009952;28;20049;-54
2023/09/20 14:07:14;;;;;;;7.35;2.42;;;26.90;98.40;;;;;;5004229;28;20053;-55
2023/09/20 14:10:19;;;;;;;6.70;2.50;;;26.90;99.20;;;;;;5003132;28;20045;-57
2023/09/20 14:13:24;;;;;;;10.95;2.65;;;27.00;98.90;;;;;;5006082;28;20041;-57
2023/09/20 14:16:28;;;;;;;8.80;2.65;;;26.40;99.70;;;;;;5006081;28;20413;-56
2023/09/20 14:19:35;;;;;;;11.30;2.20;;;26.20;99.40;;;;;;5006043;28;20511;-58
2023/09/20 14:22:42;;;;;;;13.52;2.72;;;25.80;99.90;;;;;;5009037;28;20516;-56
2023/09/20 14:25:49;;;;;;;7.80;2.70;;;25.50;99.90;;;;;;5004809;28;20405;-54
2023/09/20 14:28:57;;;;;;;9.20;2.50;;;25.30;99.90;;;;;;5008599;28;20057;-54
2023/09/20 14:32:01;;;;;;;11.35;2.92;;;25.30;99.90;;;;;;5008168;28;20037;-53
2023/09/20 14:35:07;;;;;;;7.00;2.40;;;25.50;99.90;;;;;;4999945;28;20041;-55
2023/09/20 14:38:12;;;;;;;17.05;2.72;;;25.70;99.90;;;;;;5007727;28;20044;-54
2023/09/20 14:41:16;;;;;;;14.15;2.67;;;25.90;99.90;;;;;;5005552;28;20049;-55
2023/09/20 14:44:20;;;;;;;12.18;2.75;;;26.10;99.90;;;;;;5006935;28;20045;-58
2023/09/20 14:47:27;;;;;;;13.98;2.28;;;26.10;99.90;;;;;;5003037;28;20080;-55
2023/09/20 14:50:31;;;;;;;10.75;2.58;;;26.20;99.90;;;;;;5007063;28;20045;-57
2023/09/20 14:53:35;;;;;;;9.43;2.70;;;26.10;99.90;;;;;;5006967;28;20345;-57
2023/09/20 14:56:39;;;;;;;6.03;2.30;;;26.10;99.90;;;;;;5008870;28;20036;-55
2023/09/20 14:59:43;;;;;;;10.75;2.50;;;26.20;99.90;;;;;;5008373;28;20045;-58
2023/09/20 15:02:49;;;;;;;11.23;2.72;;;26.20;99.90;;;;;;5009719;28;20049;-57
2023/09/20 15:05:53;;;;;;;8.00;2.97;;;25.60;99.90;;;;;;5010387;28;20897;-58
2023/09/20 15:08:57;;;;;;;11.90;2.90;;;25.40;99.90;;;;;;5010723;28;20044;-57
2023/09/20 15:12:01;;;;;;;11.50;2.33;;;25.30;99.90;;;;;;5006218;28;20041;-57
2023/09/20 15:15:06;;;;;;;10.82;2.75;;;25.20;99.90;;;;;;5010381;28;20053;-58
2023/09/20 15:18:10;;;;;;;14.10;3.10;;;25.10;99.90;;;;;;5010870;28;20041;-58
2023/09/20 15:21:17;;;;;;;14.00;3.47;;;25.10;99.90;;;;;;5005021;28;20041;-54
2023/09/20 15:24:21;;;;;;;9.23;2.65;;;25.10;99.90;;;;;;5010384;28;20045;-58
2023/09/20 15:27:28;;;;;;;7.78;2.50;;;25.00;99.90;;;;;;5007722;28;20045;-59
2023/09/20 15:30:36;;;;;;;11.50;3.03;;;25.00;99.90;;;;;;5009714;28;20044;-58
2023/09/20 15:33:41;;;;;;;9.93;3.22;;;25.00;99.90;;;;;;5010373;28;20045;-57
2023/09/20 15:36:44;;;;;;;11.10;2.47;;;25.10;99.90;;;;;;5006187;28;20409;-56
2023/09/20 15:39:48;;;;;;;9.13;2.67;;;25.20;99.90;;;;;;5010641;28;20057;-55
2023/09/20 15:42:55;;;;;;;13.65;2.78;;;25.00;99.90;;;;;;5000215;28;20049;-57
2023/09/20 15:46:00;;;;;;;8.63;2.53;;;24.80;99.90;;;;;;5002237;28;20515;-58
2023/09/20 15:49:04;;;;;;;6.72;2.17;;;24.70;99.90;;;;;;5002137;28;20052;-54
2023/09/20 15:52:09;;;;;;;8.50;2.30;;;24.80;99.90;;;;;;5010530;28;20041;-55
2023/09/20 15:55:14;;;;;;;16.50;2.60;;;24.60;99.90;;;;;;5009938;28;20037;-55
2023/09/20 15:58:18;;;;;;;8.18;2.20;;;24.60;99.90;;;;;;5005098;28;20049;-54
2023/09/20 16:01:26;;;;;;;6.00;2.38;;;24.60;99.90;;;;;;5009974;28;20045;-58
2023/09/20 16:04:31;;;;;;;5.32;2.33;;;24.40;99.90;;;;;;5002962;28;20667;-57
2023/09/20 16:07:36;;;;;;;8.15;2.13;;;24.40;99.90;;;;;;5010675;28;20041;-57
2023/09/20 16:10:40;;;;;;;9.23;2.28;;;24.40;99.90;;;;;;5013870;28;20045;-56
2023/09/20 16:13:44;;;;;;;12.43;2.92;;;24.40;99.90;;;;;;5012608;28;20507;-56
2023/09/20 16:16:47;;;;;;;8.10;2.38;;;24.50;99.90;;;;;;5011801;28;20121;-57
2023/09/20 16:19:52;;;;;;;8.82;2.33;;;24.40;99.90;;;;;;5013282;28;20044;-57
2023/09/20 16:22:57;;;;;;;8.48;2.30;;;24.30;99.90;;;;;;5010061;28;20057;-56
2023/09/20 16:26:01;;;;;;;10.82;2.13;;;24.30;99.90;;;;;;5013261;28;20048;-54
2023/09/20 16:29:05;;;;;;;8.63;2.25;;;24.30;99.90;;;;;;5013228;28;20416;-57
2023/09/20 16:32:08;;;;;;;7.50;2.40;;;24.30;99.90;;;;;;5008222;28;20037;-55
2023/09/20 16:35:15;;;;;;;11.35;2.25;;;24.20;99.90;;;;;;5006593;28;20041;-56
2023/09/20 16:38:20;;;;;;;5.50;2.20;;;24.20;99.90;;;;;;5013022;28;20037;-54
2023/09/20 16:41:24;;;;;;;5.35;2.67;;;24.10;99.90;;;;;;5006052;28;20041;-54
2023/09/20 16:44:28;;;;;;;9.35;2.60;;;23.90;99.90;;;;;;5008525;28;20044;-54
2023/09/20 16:47:32;;;;;;;9.23;2.20;;;23.80;99.90;;;;;;5013273;28;20049;-56